sensor_id;sensor_type;location;lat;lon;timestamp;P1;durP1;ratioP1;P2;durP2;ratioP2
43086;SDS011;28708;52.224;6.924;2022-10-16T00:00:33;7.23;;;2.17;;
43086;SDS011;28708;52.224;6.924;2022-10-16T00:03:00;5.23;;;1.77;;
43086;SDS011;28708;52.224;6.924;2022-10-16T00:05:27;7.60;;;2.00;;
43086;SDS011;28708;52.224;6.924;2022-10-16T00:07:53;7.00;;;2.50;;
43086;SDS011;28708;52.224;6.924;2022-10-16T00:10:19;5.37;;;1.97;;
43086;SDS011;28708;52.224;6.924;2022-10-16T00:12:45;9.70;;;2.40;;
43086;SDS011;28708;52.224;6.924;2022-10-16T00:15:11;8.03;;;2.20;;
43086;SDS011;28708;52.224;6.924;2022-10-16T00:17:38;4.60;;;1.53;;
43086;SDS011;28708;52.224;6.924;2022-10-16T00:20:04;5.70;;;2.00;;
43086;SDS011;28708;52.224;6.924;2022-10-16T00:22:30;10.93;;;1.87;;
43086;SDS011;28708;52.224;6.924;2022-10-16T00:24:56;5.53;;;2.00;;
43086;SDS011;28708;52.224;6.924;2022-10-16T00:27:22;7.93;;;2.13;;
43086;SDS011;28708;52.224;6.924;2022-10-16T00:29:51;7.00;;;1.83;;
43086;SDS011;28708;52.224;6.924;2022-10-16T00:32:19;5.73;;;1.70;;
43086;SDS011;28708;52.224;6.924;2022-10-16T00:34:45;5.77;;;1.83;;
43086;SDS011;28708;52.224;6.924;2022-10-16T00:37:11;6.70;;;2.10;;
43086;SDS011;28708;52.224;6.924;2022-10-16T00:39:38;4.43;;;1.53;;
43086;SDS011;28708;52.224;6.924;2022-10-16T00:42:04;7.40;;;1.83;;
43086;SDS011;28708;52.224;6.924;2022-10-16T00:44:47;5.77;;;1.77;;
43086;SDS011;28708;52.224;6.924;2022-10-16T00:50:06;4.47;;;1.80;;
43086;SDS011;28708;52.224;6.924;2022-10-16T00:52:36;5.57;;;2.20;;
43086;SDS011;28708;52.224;6.924;2022-10-16T00:55:08;5.40;;;2.00;;
43086;SDS011;28708;52.224;6.924;2022-10-16T00:57:34;6.17;;;2.07;;
43086;SDS011;28708;52.224;6.924;2022-10-16T01:00:02;5.83;;;2.30;;
43086;SDS011;28708;52.224;6.924;2022-10-16T01:02:30;6.05;;;1.67;;
43086;SDS011;28708;52.224;6.924;2022-10-16T01:04:56;7.03;;;2.27;;
43086;SDS011;28708;52.224;6.924;2022-10-16T01:21:19;8.27;;;2.80;;
43086;SDS011;28708;52.224;6.924;2022-10-16T01:29:41;9.83;;;3.57;;
43086;SDS011;28708;52.224;6.924;2022-10-16T01:37:40;8.57;;;3.33;;
43086;SDS011;28708;52.224;6.924;2022-10-16T01:40:26;9.40;;;3.70;;
43086;SDS011;28708;52.224;6.924;2022-10-16T01:42:59;10.10;;;3.97;;
43086;SDS011;28708;52.224;6.924;2022-10-16T01:45:32;12.23;;;3.90;;
43086;SDS011;28708;52.224;6.924;2022-10-16T01:48:00;9.27;;;3.73;;
43086;SDS011;28708;52.224;6.924;2022-10-16T01:50:29;12.55;;;4.65;;
43086;SDS011;28708;52.224;6.924;2022-10-16T01:52:59;11.88;;;4.63;;
43086;SDS011;28708;52.224;6.924;2022-10-16T01:55:28;11.40;;;4.70;;
43086;SDS011;28708;52.224;6.924;2022-10-16T02:00:25;12.20;;;4.43;;
43086;SDS011;28708;52.224;6.924;2022-10-16T02:02:53;8.80;;;4.57;;
43086;SDS011;28708;52.224;6.924;2022-10-16T02:05:25;10.37;;;4.50;;
43086;SDS011;28708;52.224;6.924;2022-10-16T02:08:06;8.60;;;5.40;;
43086;SDS011;28708;52.224;6.924;2022-10-16T02:10:32;8.27;;;4.50;;
43086;SDS011;28708;52.224;6.924;2022-10-16T02:13:12;11.37;;;5.43;;
43086;SDS011;28708;52.224;6.924;2022-10-16T02:15:48;12.93;;;6.20;;
43086;SDS011;28708;52.224;6.924;2022-10-16T02:18:14;10.40;;;5.57;;
43086;SDS011;28708;52.224;6.924;2022-10-16T02:20:51;12.50;;;6.07;;
43086;SDS011;28708;52.224;6.924;2022-10-16T02:23:35;12.17;;;5.63;;
43086;SDS011;28708;52.224;6.924;2022-10-16T02:26:13;10.13;;;5.50;;
43086;SDS011;28708;52.224;6.924;2022-10-16T02:28:45;10.63;;;5.97;;
43086;SDS011;28708;52.224;6.924;2022-10-16T02:31:18;13.13;;;5.83;;
43086;SDS011;28708;52.224;6.924;2022-10-16T02:33:50;9.47;;;5.40;;
43086;SDS011;28708;52.224;6.924;2022-10-16T02:36:18;7.43;;;4.93;;
43086;SDS011;28708;52.224;6.924;2022-10-16T02:38:44;9.80;;;5.67;;
43086;SDS011;28708;52.224;6.924;2022-10-16T02:41:11;11.67;;;5.10;;
43086;SDS011;28708;52.224;6.924;2022-10-16T02:43:37;9.77;;;5.07;;
43086;SDS011;28708;52.224;6.924;2022-10-16T02:46:03;8.57;;;4.80;;
43086;SDS011;28708;52.224;6.924;2022-10-16T02:48:29;7.73;;;4.53;;
43086;SDS011;28708;52.224;6.924;2022-10-16T02:50:54;6.77;;;4.20;;
43086;SDS011;28708;52.224;6.924;2022-10-16T02:53:20;8.03;;;4.30;;
43086;SDS011;28708;52.224;6.924;2022-10-16T02:55:46;7.70;;;3.97;;
43086;SDS011;28708;52.224;6.924;2022-10-16T02:58:12;9.50;;;3.90;;
43086;SDS011;28708;52.224;6.924;2022-10-16T03:00:38;9.20;;;3.97;;
43086;SDS011;28708;52.224;6.924;2022-10-16T03:03:04;8.50;;;3.87;;
43086;SDS011;28708;52.224;6.924;2022-10-16T03:05:30;10.93;;;3.80;;
43086;SDS011;28708;52.224;6.924;2022-10-16T03:07:56;5.60;;;3.40;;
43086;SDS011;28708;52.224;6.924;2022-10-16T03:10:21;7.00;;;3.10;;
43086;SDS011;28708;52.224;6.924;2022-10-16T03:12:47;6.77;;;3.00;;
43086;SDS011;28708;52.224;6.924;2022-10-16T03:15:13;6.67;;;3.00;;
43086;SDS011;28708;52.224;6.924;2022-10-16T03:17:39;8.27;;;2.77;;
43086;SDS011;28708;52.224;6.924;2022-10-16T03:20:05;8.60;;;2.90;;
43086;SDS011;28708;52.224;6.924;2022-10-16T03:22:31;8.53;;;2.80;;
43086;SDS011;28708;52.224;6.924;2022-10-16T03:24:57;8.33;;;2.57;;
43086;SDS011;28708;52.224;6.924;2022-10-16T03:27:23;6.30;;;2.57;;
43086;SDS011;28708;52.224;6.924;2022-10-16T03:29:51;5.50;;;2.20;;
43086;SDS011;28708;52.224;6.924;2022-10-16T03:32:17;5.27;;;2.67;;
43086;SDS011;28708;52.224;6.924;2022-10-16T03:34:45;5.47;;;2.57;;
43086;SDS011;28708;52.224;6.924;2022-10-16T03:37:11;7.23;;;2.60;;
43086;SDS011;28708;52.224;6.924;2022-10-16T03:39:36;4.70;;;2.50;;
43086;SDS011;28708;52.224;6.924;2022-10-16T03:42:02;7.30;;;2.60;;
43086;SDS011;28708;52.224;6.924;2022-10-16T03:44:28;7.30;;;2.00;;
43086;SDS011;28708;52.224;6.924;2022-10-16T03:46:54;5.40;;;2.50;;
43086;SDS011;28708;52.224;6.924;2022-10-16T03:49:20;3.97;;;2.10;;
43086;SDS011;28708;52.224;6.924;2022-10-16T03:51:46;5.93;;;2.40;;
43086;SDS011;28708;52.224;6.924;2022-10-16T03:54:11;7.67;;;2.57;;
43086;SDS011;28708;52.224;6.924;2022-10-16T03:56:38;6.23;;;2.23;;
43086;SDS011;28708;52.224;6.924;2022-10-16T03:59:04;5.37;;;2.63;;
43086;SDS011;28708;52.224;6.924;2022-10-16T04:01:30;4.33;;;2.03;;
43086;SDS011;28708;52.224;6.924;2022-10-16T04:03:56;5.00;;;2.50;;
43086;SDS011;28708;52.224;6.924;2022-10-16T04:06:21;6.23;;;2.60;;
43086;SDS011;28708;52.224;6.924;2022-10-16T04:08:47;4.90;;;2.20;;
43086;SDS011;28708;52.224;6.924;2022-10-16T04:11:14;5.37;;;2.47;;
43086;SDS011;28708;52.224;6.924;2022-10-16T04:13:40;6.03;;;2.57;;
43086;SDS011;28708;52.224;6.924;2022-10-16T04:16:06;6.20;;;2.20;;
43086;SDS011;28708;52.224;6.924;2022-10-16T04:18:34;8.40;;;2.20;;
43086;SDS011;28708;52.224;6.924;2022-10-16T04:21:04;6.93;;;2.33;;
43086;SDS011;28708;52.224;6.924;2022-10-16T04:23:31;7.23;;;2.63;;
43086;SDS011;28708;52.224;6.924;2022-10-16T04:25:57;4.00;;;2.30;;
43086;SDS011;28708;52.224;6.924;2022-10-16T04:28:24;4.43;;;1.90;;
43086;SDS011;28708;52.224;6.924;2022-10-16T04:30:50;4.57;;;2.40;;
43086;SDS011;28708;52.224;6.924;2022-10-16T04:33:16;6.03;;;2.33;;
43086;SDS011;28708;52.224;6.924;2022-10-16T04:35:42;5.20;;;2.20;;
43086;SDS011;28708;52.224;6.924;2022-10-16T04:38:08;5.17;;;2.73;;
43086;SDS011;28708;52.224;6.924;2022-10-16T04:40:33;7.83;;;2.43;;
43086;SDS011;28708;52.224;6.924;2022-10-16T04:43:02;4.37;;;2.07;;
43086;SDS011;28708;52.224;6.924;2022-10-16T04:45:28;4.67;;;2.60;;
43086;SDS011;28708;52.224;6.924;2022-10-16T04:48:03;3.80;;;2.37;;
43086;SDS011;28708;52.224;6.924;2022-10-16T04:50:31;3.90;;;2.40;;
43086;SDS011;28708;52.224;6.924;2022-10-16T04:53:04;4.90;;;2.90;;
43086;SDS011;28708;52.224;6.924;2022-10-16T04:55:30;4.17;;;2.63;;
43086;SDS011;28708;52.224;6.924;2022-10-16T04:57:56;6.67;;;2.67;;
43086;SDS011;28708;52.224;6.924;2022-10-16T05:00:22;4.97;;;2.80;;
43086;SDS011;28708;52.224;6.924;2022-10-16T05:02:49;4.70;;;2.33;;
43086;SDS011;28708;52.224;6.924;2022-10-16T05:05:15;5.57;;;2.50;;
43086;SDS011;28708;52.224;6.924;2022-10-16T05:07:41;5.67;;;2.57;;
43086;SDS011;28708;52.224;6.924;2022-10-16T05:10:07;7.00;;;2.40;;
43086;SDS011;28708;52.224;6.924;2022-10-16T05:12:33;5.87;;;2.60;;
43086;SDS011;28708;52.224;6.924;2022-10-16T05:14:59;4.13;;;2.40;;
43086;SDS011;28708;52.224;6.924;2022-10-16T05:17:25;3.90;;;2.30;;
43086;SDS011;28708;52.224;6.924;2022-10-16T05:19:51;5.00;;;2.37;;
43086;SDS011;28708;52.224;6.924;2022-10-16T05:22:17;5.90;;;2.60;;
43086;SDS011;28708;52.224;6.924;2022-10-16T05:24:43;3.43;;;2.20;;
43086;SDS011;28708;52.224;6.924;2022-10-16T05:27:09;8.13;;;2.53;;
43086;SDS011;28708;52.224;6.924;2022-10-16T05:29:36;5.07;;;2.43;;
43086;SDS011;28708;52.224;6.924;2022-10-16T05:32:02;4.87;;;2.30;;
43086;SDS011;28708;52.224;6.924;2022-10-16T05:34:28;4.40;;;1.83;;
43086;SDS011;28708;52.224;6.924;2022-10-16T05:36:54;6.20;;;2.53;;
43086;SDS011;28708;52.224;6.924;2022-10-16T05:39:20;5.33;;;3.00;;
43086;SDS011;28708;52.224;6.924;2022-10-16T05:41:46;3.77;;;2.23;;
43086;SDS011;28708;52.224;6.924;2022-10-16T05:44:11;4.70;;;2.57;;
43086;SDS011;28708;52.224;6.924;2022-10-16T05:46:37;4.70;;;2.40;;
43086;SDS011;28708;52.224;6.924;2022-10-16T05:49:06;4.10;;;2.50;;
43086;SDS011;28708;52.224;6.924;2022-10-16T05:51:32;7.53;;;2.57;;
43086;SDS011;28708;52.224;6.924;2022-10-16T05:53:58;5.33;;;2.10;;
43086;SDS011;28708;52.224;6.924;2022-10-16T05:56:23;5.03;;;2.87;;
43086;SDS011;28708;52.224;6.924;2022-10-16T05:58:49;4.50;;;2.37;;
43086;SDS011;28708;52.224;6.924;2022-10-16T06:01:16;6.37;;;2.60;;
43086;SDS011;28708;52.224;6.924;2022-10-16T06:03:43;5.13;;;2.53;;
43086;SDS011;28708;52.224;6.924;2022-10-16T06:06:17;5.40;;;2.77;;
43086;SDS011;28708;52.224;6.924;2022-10-16T06:08:45;5.70;;;2.63;;
43086;SDS011;28708;52.224;6.924;2022-10-16T06:11:12;6.87;;;2.80;;
43086;SDS011;28708;52.224;6.924;2022-10-16T06:13:40;5.20;;;2.50;;
43086;SDS011;28708;52.224;6.924;2022-10-16T06:16:11;9.87;;;3.30;;
43086;SDS011;28708;52.224;6.924;2022-10-16T06:18:38;5.47;;;2.23;;
43086;SDS011;28708;52.224;6.924;2022-10-16T06:21:11;6.73;;;2.33;;
43086;SDS011;28708;52.224;6.924;2022-10-16T06:23:39;5.63;;;2.60;;
43086;SDS011;28708;52.224;6.924;2022-10-16T06:26:05;5.23;;;2.07;;
43086;SDS011;28708;52.224;6.924;2022-10-16T06:28:36;5.23;;;2.50;;
43086;SDS011;28708;52.224;6.924;2022-10-16T06:31:03;3.63;;;2.40;;
43086;SDS011;28708;52.224;6.924;2022-10-16T06:33:30;7.23;;;3.83;;
43086;SDS011;28708;52.224;6.924;2022-10-16T06:36:00;6.20;;;2.53;;
43086;SDS011;28708;52.224;6.924;2022-10-16T06:38:28;2.93;;;2.10;;
43086;SDS011;28708;52.224;6.924;2022-10-16T06:40:54;4.50;;;2.27;;
43086;SDS011;28708;52.224;6.924;2022-10-16T06:43:20;8.17;;;2.90;;
43086;SDS011;28708;52.224;6.924;2022-10-16T06:45:55;5.30;;;2.77;;
43086;SDS011;28708;52.224;6.924;2022-10-16T06:48:22;4.27;;;2.30;;
43086;SDS011;28708;52.224;6.924;2022-10-16T06:51:01;4.63;;;2.57;;
43086;SDS011;28708;52.224;6.924;2022-10-16T06:53:30;5.20;;;2.40;;
43086;SDS011;28708;52.224;6.924;2022-10-16T06:55:58;4.97;;;2.57;;
43086;SDS011;28708;52.224;6.924;2022-10-16T06:58:41;3.10;;;2.10;;
43086;SDS011;28708;52.224;6.924;2022-10-16T07:01:08;3.27;;;2.10;;
43086;SDS011;28708;52.224;6.924;2022-10-16T07:03:37;6.13;;;2.50;;
43086;SDS011;28708;52.224;6.924;2022-10-16T07:06:05;6.10;;;2.50;;
43086;SDS011;28708;52.224;6.924;2022-10-16T07:08:32;6.03;;;2.50;;
43086;SDS011;28708;52.224;6.924;2022-10-16T07:11:04;5.27;;;2.67;;
43086;SDS011;28708;52.224;6.924;2022-10-16T07:13:34;5.43;;;2.37;;
43086;SDS011;28708;52.224;6.924;2022-10-16T07:18:35;4.30;;;2.30;;
43086;SDS011;28708;52.224;6.924;2022-10-16T07:23:58;4.07;;;1.77;;
43086;SDS011;28708;52.224;6.924;2022-10-16T07:26:26;5.25;;;2.30;;
43086;SDS011;28708;52.224;6.924;2022-10-16T07:28:53;4.77;;;2.27;;
43086;SDS011;28708;52.224;6.924;2022-10-16T07:31:19;6.33;;;2.00;;
43086;SDS011;28708;52.224;6.924;2022-10-16T07:33:46;5.13;;;1.90;;
43086;SDS011;28708;52.224;6.924;2022-10-16T07:36:13;5.53;;;2.40;;
43086;SDS011;28708;52.224;6.924;2022-10-16T07:38:40;5.10;;;2.20;;
43086;SDS011;28708;52.224;6.924;2022-10-16T07:41:08;7.57;;;1.87;;
43086;SDS011;28708;52.224;6.924;2022-10-16T07:43:36;7.07;;;2.00;;
43086;SDS011;28708;52.224;6.924;2022-10-16T07:46:02;4.63;;;1.87;;
43086;SDS011;28708;52.224;6.924;2022-10-16T07:48:30;5.00;;;2.17;;
43086;SDS011;28708;52.224;6.924;2022-10-16T07:51:04;4.30;;;1.87;;
43086;SDS011;28708;52.224;6.924;2022-10-16T07:53:31;6.13;;;2.17;;
43086;SDS011;28708;52.224;6.924;2022-10-16T07:55:58;10.33;;;2.13;;
43086;SDS011;28708;52.224;6.924;2022-10-16T07:58:28;3.20;;;1.80;;
43086;SDS011;28708;52.224;6.924;2022-10-16T08:00:55;6.07;;;2.43;;
43086;SDS011;28708;52.224;6.924;2022-10-16T08:03:21;8.30;;;2.23;;
43086;SDS011;28708;52.224;6.924;2022-10-16T08:05:48;3.87;;;1.80;;
43086;SDS011;28708;52.224;6.924;2022-10-16T08:08:18;6.37;;;2.20;;
43086;SDS011;28708;52.224;6.924;2022-10-16T08:10:44;4.05;;;1.80;;
43086;SDS011;28708;52.224;6.924;2022-10-16T08:13:10;7.10;;;2.40;;
43086;SDS011;28708;52.224;6.924;2022-10-16T08:15:37;7.63;;;2.37;;
43086;SDS011;28708;52.224;6.924;2022-10-16T08:18:04;8.50;;;2.30;;
43086;SDS011;28708;52.224;6.924;2022-10-16T08:20:30;6.53;;;2.13;;
43086;SDS011;28708;52.224;6.924;2022-10-16T08:22:57;6.97;;;2.10;;
43086;SDS011;28708;52.224;6.924;2022-10-16T08:25:24;10.53;;;2.47;;
43086;SDS011;28708;52.224;6.924;2022-10-16T08:27:51;5.40;;;2.30;;
43086;SDS011;28708;52.224;6.924;2022-10-16T08:30:17;5.40;;;1.60;;
43086;SDS011;28708;52.224;6.924;2022-10-16T08:32:44;3.60;;;2.10;;
43086;SDS011;28708;52.224;6.924;2022-10-16T08:35:11;4.17;;;1.67;;
43086;SDS011;28708;52.224;6.924;2022-10-16T08:37:38;7.00;;;1.87;;
43086;SDS011;28708;52.224;6.924;2022-10-16T08:40:13;4.07;;;1.60;;
43086;SDS011;28708;52.224;6.924;2022-10-16T08:50:49;7.30;;;2.10;;
43086;SDS011;28708;52.224;6.924;2022-10-16T08:56:10;9.53;;;2.07;;
43086;SDS011;28708;52.224;6.924;2022-10-16T08:58:36;7.07;;;1.70;;
43086;SDS011;28708;52.224;6.924;2022-10-16T09:01:03;5.27;;;1.87;;
43086;SDS011;28708;52.224;6.924;2022-10-16T09:14:37;4.77;;;1.97;;
43086;SDS011;28708;52.224;6.924;2022-10-16T09:22:45;11.27;;;1.83;;
43086;SDS011;28708;52.224;6.924;2022-10-16T09:25:12;9.70;;;2.50;;
43086;SDS011;28708;52.224;6.924;2022-10-16T09:27:45;10.23;;;1.97;;
43086;SDS011;28708;52.224;6.924;2022-10-16T09:30:17;9.43;;;2.27;;
43086;SDS011;28708;52.224;6.924;2022-10-16T09:32:44;7.30;;;1.77;;
43086;SDS011;28708;52.224;6.924;2022-10-16T09:35:55;6.67;;;1.70;;
43086;SDS011;28708;52.224;6.924;2022-10-16T09:38:04;7.37;;;1.60;;
43086;SDS011;28708;52.224;6.924;2022-10-16T09:40:31;7.73;;;2.00;;
43086;SDS011;28708;52.224;6.924;2022-10-16T09:46:04;7.67;;;1.60;;
43086;SDS011;28708;52.224;6.924;2022-10-16T09:48:36;6.80;;;2.20;;
43086;SDS011;28708;52.224;6.924;2022-10-16T09:51:05;6.83;;;1.60;;
43086;SDS011;28708;52.224;6.924;2022-10-16T09:53:42;6.07;;;1.80;;
43086;SDS011;28708;52.224;6.924;2022-10-16T09:56:10;8.37;;;2.00;;
43086;SDS011;28708;52.224;6.924;2022-10-16T09:58:42;5.50;;;1.70;;
43086;SDS011;28708;52.224;6.924;2022-10-16T10:01:13;5.00;;;1.50;;
43086;SDS011;28708;52.224;6.924;2022-10-16T10:03:41;3.57;;;1.53;;
43086;SDS011;28708;52.224;6.924;2022-10-16T10:06:16;8.07;;;1.67;;
43086;SDS011;28708;52.224;6.924;2022-10-16T10:08:57;6.30;;;1.63;;
43086;SDS011;28708;52.224;6.924;2022-10-16T10:11:42;6.20;;;1.67;;
43086;SDS011;28708;52.224;6.924;2022-10-16T10:16:46;10.97;;;2.10;;
43086;SDS011;28708;52.224;6.924;2022-10-16T10:19:16;7.13;;;2.10;;
43086;SDS011;28708;52.224;6.924;2022-10-16T10:21:45;7.38;;;2.10;;
43086;SDS011;28708;52.224;6.924;2022-10-16T10:24:16;7.53;;;2.22;;
43086;SDS011;28708;52.224;6.924;2022-10-16T10:26:46;8.13;;;2.58;;
43086;SDS011;28708;52.224;6.924;2022-10-16T10:29:35;10.25;;;3.10;;
43086;SDS011;28708;52.224;6.924;2022-10-16T10:32:23;9.73;;;3.00;;
43086;SDS011;28708;52.224;6.924;2022-10-16T10:40:54;9.65;;;3.90;;
43086;SDS011;28708;52.224;6.924;2022-10-16T10:43:47;9.93;;;4.10;;
43086;SDS011;28708;52.224;6.924;2022-10-16T11:00:49;9.77;;;2.90;;
43086;SDS011;28708;52.224;6.924;2022-10-16T11:11:44;7.90;;;1.92;;
43086;SDS011;28708;52.224;6.924;2022-10-16T11:14:38;7.22;;;1.73;;
43086;SDS011;28708;52.224;6.924;2022-10-16T11:17:12;10.07;;;1.98;;
43086;SDS011;28708;52.224;6.924;2022-10-16T11:19:48;9.65;;;2.05;;
43086;SDS011;28708;52.224;6.924;2022-10-16T11:22:21;10.43;;;3.10;;
43086;SDS011;28708;52.224;6.924;2022-10-16T11:24:59;10.13;;;2.03;;
43086;SDS011;28708;52.224;6.924;2022-10-16T11:27:37;8.27;;;1.90;;
43086;SDS011;28708;52.224;6.924;2022-10-16T11:30:14;10.05;;;2.15;;
43086;SDS011;28708;52.224;6.924;2022-10-16T11:32:56;13.85;;;2.35;;
43086;SDS011;28708;52.224;6.924;2022-10-16T11:35:48;8.35;;;1.73;;
43086;SDS011;28708;52.224;6.924;2022-10-16T11:38:32;7.65;;;1.90;;
43086;SDS011;28708;52.224;6.924;2022-10-16T11:44:16;8.45;;;1.85;;
43086;SDS011;28708;52.224;6.924;2022-10-16T11:47:01;8.83;;;2.23;;
43086;SDS011;28708;52.224;6.924;2022-10-16T11:49:32;13.90;;;1.90;;
43086;SDS011;28708;52.224;6.924;2022-10-16T11:54:39;10.10;;;2.30;;
43086;SDS011;28708;52.224;6.924;2022-10-16T11:57:19;14.70;;;1.87;;
43086;SDS011;28708;52.224;6.924;2022-10-16T12:08:36;11.33;;;1.90;;
43086;SDS011;28708;52.224;6.924;2022-10-16T12:11:20;13.60;;;2.47;;
43086;SDS011;28708;52.224;6.924;2022-10-16T12:17:02;9.90;;;2.10;;
43086;SDS011;28708;52.224;6.924;2022-10-16T12:19:57;9.83;;;1.90;;
43086;SDS011;28708;52.224;6.924;2022-10-16T12:28:17;9.03;;;1.63;;
43086;SDS011;28708;52.224;6.924;2022-10-16T12:30:52;7.70;;;2.03;;
43086;SDS011;28708;52.224;6.924;2022-10-16T12:33:40;11.03;;;2.03;;
43086;SDS011;28708;52.224;6.924;2022-10-16T12:36:15;10.37;;;1.87;;
43086;SDS011;28708;52.224;6.924;2022-10-16T12:38:52;8.63;;;1.50;;
43086;SDS011;28708;52.224;6.924;2022-10-16T12:41:32;9.67;;;2.20;;
43086;SDS011;28708;52.224;6.924;2022-10-16T12:44:00;6.00;;;1.73;;
43086;SDS011;28708;52.224;6.924;2022-10-16T12:51:52;11.27;;;2.23;;
43086;SDS011;28708;52.224;6.924;2022-10-16T12:54:29;8.10;;;1.50;;
43086;SDS011;28708;52.224;6.924;2022-10-16T13:02:19;9.93;;;2.10;;
43086;SDS011;28708;52.224;6.924;2022-10-16T13:17:32;8.30;;;2.00;;
43086;SDS011;28708;52.224;6.924;2022-10-16T13:19:42;9.60;;;1.80;;
43086;SDS011;28708;52.224;6.924;2022-10-16T13:30:15;10.80;;;1.87;;
43086;SDS011;28708;52.224;6.924;2022-10-16T13:32:46;13.07;;;1.90;;
43086;SDS011;28708;52.224;6.924;2022-10-16T13:35:25;11.90;;;2.27;;
43086;SDS011;28708;52.224;6.924;2022-10-16T13:38:12;12.33;;;2.07;;
43086;SDS011;28708;52.224;6.924;2022-10-16T13:40:53;8.77;;;2.27;;
43086;SDS011;28708;52.224;6.924;2022-10-16T13:46:02;8.10;;;1.77;;
43086;SDS011;28708;52.224;6.924;2022-10-16T13:48:30;12.20;;;2.23;;
43086;SDS011;28708;52.224;6.924;2022-10-16T13:53:30;10.53;;;1.70;;
43086;SDS011;28708;52.224;6.924;2022-10-16T13:55:57;6.80;;;1.43;;
43086;SDS011;28708;52.224;6.924;2022-10-16T13:58:25;11.30;;;2.60;;
43086;SDS011;28708;52.224;6.924;2022-10-16T14:00:58;10.57;;;2.07;;
43086;SDS011;28708;52.224;6.924;2022-10-16T14:03:30;10.60;;;1.98;;
43086;SDS011;28708;52.224;6.924;2022-10-16T14:05:59;8.63;;;1.93;;
43086;SDS011;28708;52.224;6.924;2022-10-16T14:08:28;9.07;;;1.95;;
43086;SDS011;28708;52.224;6.924;2022-10-16T14:10:56;7.80;;;1.90;;
43086;SDS011;28708;52.224;6.924;2022-10-16T14:15:55;9.73;;;2.00;;
43086;SDS011;28708;52.224;6.924;2022-10-16T14:18:24;12.20;;;2.40;;
43086;SDS011;28708;52.224;6.924;2022-10-16T14:20:52;10.47;;;1.87;;
43086;SDS011;28708;52.224;6.924;2022-10-16T14:23:51;7.87;;;1.90;;
43086;SDS011;28708;52.224;6.924;2022-10-16T14:28:38;9.47;;;1.90;;
43086;SDS011;28708;52.224;6.924;2022-10-16T14:34:36;11.13;;;2.40;;
43086;SDS011;28708;52.224;6.924;2022-10-16T14:37:16;14.20;;;2.10;;
43086;SDS011;28708;52.224;6.924;2022-10-16T14:39:50;7.67;;;1.67;;
43086;SDS011;28708;52.224;6.924;2022-10-16T14:42:17;10.73;;;2.17;;
43086;SDS011;28708;52.224;6.924;2022-10-16T14:44:45;11.57;;;2.23;;
43086;SDS011;28708;52.224;6.924;2022-10-16T14:47:16;11.77;;;2.37;;
43086;SDS011;28708;52.224;6.924;2022-10-16T14:49:47;12.40;;;2.00;;
43086;SDS011;28708;52.224;6.924;2022-10-16T14:52:13;9.17;;;1.70;;
43086;SDS011;28708;52.224;6.924;2022-10-16T14:54:40;6.97;;;1.70;;
43086;SDS011;28708;52.224;6.924;2022-10-16T14:57:13;9.10;;;2.00;;
43086;SDS011;28708;52.224;6.924;2022-10-16T14:59:42;10.77;;;2.20;;
43086;SDS011;28708;52.224;6.924;2022-10-16T15:04:54;15.07;;;2.43;;
43086;SDS011;28708;52.224;6.924;2022-10-16T15:07:20;9.47;;;2.03;;
43086;SDS011;28708;52.224;6.924;2022-10-16T15:09:46;9.07;;;1.90;;
43086;SDS011;28708;52.224;6.924;2022-10-16T15:12:12;10.80;;;2.00;;
43086;SDS011;28708;52.224;6.924;2022-10-16T15:14:38;7.90;;;1.87;;
43086;SDS011;28708;52.224;6.924;2022-10-16T15:17:04;10.53;;;2.13;;
43086;SDS011;28708;52.224;6.924;2022-10-16T15:19:30;8.17;;;1.80;;
43086;SDS011;28708;52.224;6.924;2022-10-16T15:21:56;22.40;;;2.87;;
43086;SDS011;28708;52.224;6.924;2022-10-16T15:24:22;9.17;;;2.00;;
43086;SDS011;28708;52.224;6.924;2022-10-16T15:26:47;9.20;;;1.87;;
43086;SDS011;28708;52.224;6.924;2022-10-16T15:29:16;7.57;;;1.90;;
43086;SDS011;28708;52.224;6.924;2022-10-16T15:31:43;11.40;;;2.30;;
43086;SDS011;28708;52.224;6.924;2022-10-16T15:34:09;13.43;;;2.50;;
43086;SDS011;28708;52.224;6.924;2022-10-16T15:36:36;12.50;;;2.77;;
43086;SDS011;28708;52.224;6.924;2022-10-16T15:39:21;8.40;;;2.33;;
43086;SDS011;28708;52.224;6.924;2022-10-16T15:41:47;11.47;;;2.40;;
43086;SDS011;28708;52.224;6.924;2022-10-16T15:44:18;8.63;;;1.93;;
43086;SDS011;28708;52.224;6.924;2022-10-16T15:46:45;8.57;;;2.33;;
43086;SDS011;28708;52.224;6.924;2022-10-16T15:49:12;7.33;;;2.20;;
43086;SDS011;28708;52.224;6.924;2022-10-16T15:51:39;11.57;;;2.53;;
43086;SDS011;28708;52.224;6.924;2022-10-16T15:54:06;8.57;;;2.30;;
43086;SDS011;28708;52.224;6.924;2022-10-16T15:56:32;13.37;;;3.10;;
43086;SDS011;28708;52.224;6.924;2022-10-16T15:58:58;11.37;;;2.60;;
43086;SDS011;28708;52.224;6.924;2022-10-16T16:01:26;9.17;;;2.63;;
43086;SDS011;28708;52.224;6.924;2022-10-16T16:03:52;9.23;;;2.70;;
43086;SDS011;28708;52.224;6.924;2022-10-16T16:06:19;5.30;;;1.90;;
43086;SDS011;28708;52.224;6.924;2022-10-16T16:08:45;12.03;;;3.10;;
43086;SDS011;28708;52.224;6.924;2022-10-16T16:11:12;14.47;;;3.20;;
43086;SDS011;28708;52.224;6.924;2022-10-16T16:13:40;13.25;;;4.05;;
43086;SDS011;28708;52.224;6.924;2022-10-16T16:16:07;14.13;;;3.63;;
43086;SDS011;28708;52.224;6.924;2022-10-16T16:18:35;13.20;;;3.23;;
43086;SDS011;28708;52.224;6.924;2022-10-16T16:21:01;10.90;;;3.57;;
43086;SDS011;28708;52.224;6.924;2022-10-16T16:23:27;17.43;;;3.43;;
43086;SDS011;28708;52.224;6.924;2022-10-16T16:28:40;9.43;;;2.70;;
43086;SDS011;28708;52.224;6.924;2022-10-16T16:31:06;15.07;;;3.60;;
43086;SDS011;28708;52.224;6.924;2022-10-16T16:33:32;14.20;;;3.63;;
43086;SDS011;28708;52.224;6.924;2022-10-16T16:35:59;14.60;;;3.47;;
43086;SDS011;28708;52.224;6.924;2022-10-16T16:38:26;12.47;;;3.07;;
43086;SDS011;28708;52.224;6.924;2022-10-16T16:40:53;15.43;;;3.73;;
43086;SDS011;28708;52.224;6.924;2022-10-16T16:43:22;9.60;;;3.00;;
43086;SDS011;28708;52.224;6.924;2022-10-16T16:45:52;10.38;;;2.63;;
43086;SDS011;28708;52.224;6.924;2022-10-16T16:48:18;13.07;;;3.67;;
43086;SDS011;28708;52.224;6.924;2022-10-16T16:50:44;14.70;;;3.37;;
43086;SDS011;28708;52.224;6.924;2022-10-16T16:53:10;15.07;;;3.90;;
43086;SDS011;28708;52.224;6.924;2022-10-16T16:55:35;15.27;;;4.13;;
43086;SDS011;28708;52.224;6.924;2022-10-16T16:58:01;15.17;;;4.20;;
43086;SDS011;28708;52.224;6.924;2022-10-16T17:00:28;14.60;;;4.50;;
43086;SDS011;28708;52.224;6.924;2022-10-16T17:02:56;16.67;;;4.50;;
43086;SDS011;28708;52.224;6.924;2022-10-16T17:05:22;15.30;;;3.70;;
43086;SDS011;28708;52.224;6.924;2022-10-16T17:07:48;9.67;;;3.60;;
43086;SDS011;28708;52.224;6.924;2022-10-16T17:10:14;14.10;;;3.83;;
43086;SDS011;28708;52.224;6.924;2022-10-16T17:12:40;11.73;;;3.27;;
43086;SDS011;28708;52.224;6.924;2022-10-16T17:15:06;12.43;;;3.40;;
43086;SDS011;28708;52.224;6.924;2022-10-16T17:17:32;11.13;;;2.93;;
43086;SDS011;28708;52.224;6.924;2022-10-16T17:19:58;8.97;;;3.33;;
43086;SDS011;28708;52.224;6.924;2022-10-16T17:22:24;9.40;;;2.47;;
43086;SDS011;28708;52.224;6.924;2022-10-16T17:24:50;9.50;;;3.00;;
43086;SDS011;28708;52.224;6.924;2022-10-16T17:27:17;10.13;;;3.87;;
43086;SDS011;28708;52.224;6.924;2022-10-16T17:29:43;10.73;;;3.03;;
43086;SDS011;28708;52.224;6.924;2022-10-16T17:32:10;10.57;;;3.10;;
43086;SDS011;28708;52.224;6.924;2022-10-16T17:34:36;19.30;;;3.50;;
43086;SDS011;28708;52.224;6.924;2022-10-16T17:37:02;14.30;;;2.90;;
43086;SDS011;28708;52.224;6.924;2022-10-16T17:39:27;15.67;;;3.40;;
43086;SDS011;28708;52.224;6.924;2022-10-16T17:41:53;10.80;;;2.47;;
43086;SDS011;28708;52.224;6.924;2022-10-16T17:44:20;15.13;;;3.33;;
43086;SDS011;28708;52.224;6.924;2022-10-16T17:46:49;9.43;;;3.20;;